Hlavní strana
METAR-TAF:

METAR-TAF

Letiště :

Heidrun, Norsko

zeměpisná šířka: 65-19-30N, zeměpisná délka: 007-19-36E, výška: 0 m

Aktuální stav počasí

Zpráva byla vytvořena před 32 minutami, v 11:50 UTC
Severoseverovýchodní vítr 16 kt
Teplota 3°C
Vlhkost vzduchu 52%
Tlak 1020 hPa
Viditelnost 10 km a více
Skoro jasno ve výšce 4000 ft
Polojasno ve výšce 20000 ft

METAR: ENHE 071150Z 02016KT 9999 FEW040 SCT200 03/M06 Q1020 W///S6

Čas: 13:22 (12:22 UTC)

Předpověď počasí

Zpráva byla vytvořena před 1 hodinou a 22 minutami, v 11:00 UTC
Předpověď platná od 07 v 12 UTC do 07 v 21 UTC
Severoseverovýchodní vítr 15 kt
Viditelnost 10 km a více
Skoro jasno ve výšce 1500 ft, Vertikální cumulus.
Polojasno ve výšce 3000 ft
slabé dešťové přeháňky, sníh
Změna
od 07 v 14 UTC do 07 v 16 UTC
Severozápadní vítr 8 kt
Změna
od 07 v 18 UTC do 07 v 21 UTC
Západní vítr 15 kt

TAF: ENHE 071100Z 0712/0721 02015KT 9999 -SHRASN FEW015TCU SCT030 BECMG 0714/0716 32008KT BECMG 0718/0721 26015KT

Stav a předpovědi počasí z více než 4 000 letišť (zprávy METAR a TAF).

Červené a žluté tečky na mapě představují dostupné meteorologické stanice.

Když kurzor umístíte na tečku, zobrazí se název stanice.

Pak kliknutím zobrazíte stav a předpověď počasí.

Chcete-li změnit mapu, kliknutím na zelené tlačítko se znaménkem +mapu přiblížíte, kliknutím na zelené tlačítko se znaménkem – mapu oddálíte a kliknutím na zelené šipky přejdete na sousední mapy.


METAR-TAF: